sensor_id;sensor_type;location;lat;lon;timestamp;temperature;humidity
26272;DHT22;13997;48.902;12.472;2023-02-08T00:00:58;115.40;2176.00
26272;DHT22;13997;48.902;12.472;2023-02-08T00:03:24;115.40;2176.00
26272;DHT22;13997;48.902;12.472;2023-02-08T00:05:50;115.40;2176.00
26272;DHT22;13997;48.902;12.472;2023-02-08T00:08:15;115.40;2176.00
26272;DHT22;13997;48.902;12.472;2023-02-08T00:10:42;115.40;2176.00
26272;DHT22;13997;48.902;12.472;2023-02-08T00:13:07;115.40;2176.00
26272;DHT22;13997;48.902;12.472;2023-02-08T00:15:33;115.40;2176.00
26272;DHT22;13997;48.902;12.472;2023-02-08T00:17:59;115.40;2176.00
26272;DHT22;13997;48.902;12.472;2023-02-08T00:20:24;115.50;2176.00
26272;DHT22;13997;48.902;12.472;2023-02-08T00:22:50;115.50;2176.00
26272;DHT22;13997;48.902;12.472;2023-02-08T00:25:16;115.50;2176.00
26272;DHT22;13997;48.902;12.472;2023-02-08T00:27:41;115.50;2176.00
26272;DHT22;13997;48.902;12.472;2023-02-08T00:30:07;115.50;2176.00
26272;DHT22;13997;48.902;12.472;2023-02-08T00:32:33;115.50;2176.00
26272;DHT22;13997;48.902;12.472;2023-02-08T00:34:58;115.60;2176.00
26272;DHT22;13997;48.902;12.472;2023-02-08T00:37:24;115.50;2176.00
26272;DHT22;13997;48.902;12.472;2023-02-08T00:39:50;115.60;2176.00
26272;DHT22;13997;48.902;12.472;2023-02-08T00:42:15;115.70;2176.00
26272;DHT22;13997;48.902;12.472;2023-02-08T00:44:41;115.70;2176.00
26272;DHT22;13997;48.902;12.472;2023-02-08T00:47:06;115.80;2176.00
26272;DHT22;13997;48.902;12.472;2023-02-08T00:49:32;115.80;2176.00
26272;DHT22;13997;48.902;12.472;2023-02-08T00:51:57;115.80;2176.00
26272;DHT22;13997;48.902;12.472;2023-02-08T00:54:23;115.90;2176.00
26272;DHT22;13997;48.902;12.472;2023-02-08T00:56:48;115.90;2176.00
26272;DHT22;13997;48.902;12.472;2023-02-08T00:59:14;115.80;2176.00
26272;DHT22;13997;48.902;12.472;2023-02-08T01:01:40;115.90;2176.00
26272;DHT22;13997;48.902;12.472;2023-02-08T01:04:06;115.90;2176.00
26272;DHT22;13997;48.902;12.472;2023-02-08T01:06:32;115.90;2176.00
26272;DHT22;13997;48.902;12.472;2023-02-08T01:08:58;115.90;2176.00
26272;DHT22;13997;48.902;12.472;2023-02-08T01:11:24;115.90;2176.00
26272;DHT22;13997;48.902;12.472;2023-02-08T01:13:55;115.90;2176.00
26272;DHT22;13997;48.902;12.472;2023-02-08T01:16:25;116.00;2176.00
26272;DHT22;13997;48.902;12.472;2023-02-08T01:18:52;116.00;2176.00
26272;DHT22;13997;48.902;12.472;2023-02-08T01:21:21;116.00;2176.00
26272;DHT22;13997;48.902;12.472;2023-02-08T01:23:47;116.00;2176.00
26272;DHT22;13997;48.902;12.472;2023-02-08T01:26:14;116.00;2176.00
26272;DHT22;13997;48.902;12.472;2023-02-08T01:28:40;116.10;2176.00
26272;DHT22;13997;48.902;12.472;2023-02-08T01:31:11;116.10;2176.00
26272;DHT22;13997;48.902;12.472;2023-02-08T01:33:38;140.80;2176.00
26272;DHT22;13997;48.902;12.472;2023-02-08T01:36:04;140.80;2176.00
26272;DHT22;13997;48.902;12.472;2023-02-08T01:38:31;140.80;2176.00
26272;DHT22;13997;48.902;12.472;2023-02-08T01:40:57;140.80;2176.00
26272;DHT22;13997;48.902;12.472;2023-02-08T01:43:26;140.80;2176.00
26272;DHT22;13997;48.902;12.472;2023-02-08T01:45:52;140.80;2176.00
26272;DHT22;13997;48.902;12.472;2023-02-08T01:50:58;140.90;2176.00
26272;DHT22;13997;48.902;12.472;2023-02-08T01:53:27;140.90;2176.00
26272;DHT22;13997;48.902;12.472;2023-02-08T01:55:56;140.90;2176.00
26272;DHT22;13997;48.902;12.472;2023-02-08T01:58:25;141.00;2176.00
26272;DHT22;13997;48.902;12.472;2023-02-08T02:00:52;141.00;2176.00
26272;DHT22;13997;48.902;12.472;2023-02-08T02:03:20;141.10;2176.00
26272;DHT22;13997;48.902;12.472;2023-02-08T02:05:50;141.00;2176.00
26272;DHT22;13997;48.902;12.472;2023-02-08T02:08:17;141.00;2176.00
26272;DHT22;13997;48.902;12.472;2023-02-08T02:10:42;141.10;2176.00
26272;DHT22;13997;48.902;12.472;2023-02-08T02:13:20;141.00;2176.00
26272;DHT22;13997;48.902;12.472;2023-02-08T02:15:47;141.00;2176.00
26272;DHT22;13997;48.902;12.472;2023-02-08T02:18:24;141.00;2176.00
26272;DHT22;13997;48.902;12.472;2023-02-08T02:36:12;141.00;2176.00
26272;DHT22;13997;48.902;12.472;2023-02-08T02:38:59;141.00;2176.00
26272;DHT22;13997;48.902;12.472;2023-02-08T02:41:44;141.00;2176.00
26272;DHT22;13997;48.902;12.472;2023-02-08T02:47:25;141.10;2176.00
26272;DHT22;13997;48.902;12.472;2023-02-08T02:49:57;141.10;2176.00
26272;DHT22;13997;48.902;12.472;2023-02-08T02:52:30;141.10;2176.00
26272;DHT22;13997;48.902;12.472;2023-02-08T02:55:02;141.10;2176.00
26272;DHT22;13997;48.902;12.472;2023-02-08T02:57:31;141.10;2176.00
26272;DHT22;13997;48.902;12.472;2023-02-08T02:59:58;141.10;2176.00
26272;DHT22;13997;48.902;12.472;2023-02-08T03:02:26;141.10;2176.00
26272;DHT22;13997;48.902;12.472;2023-02-08T03:04:55;141.10;2176.00
26272;DHT22;13997;48.902;12.472;2023-02-08T03:12:52;141.20;2176.00
26272;DHT22;13997;48.902;12.472;2023-02-08T03:15:32;141.20;2176.00
26272;DHT22;13997;48.902;12.472;2023-02-08T03:24:13;141.10;2176.00
26272;DHT22;13997;48.902;12.472;2023-02-08T03:26:54;141.10;2176.00
26272;DHT22;13997;48.902;12.472;2023-02-08T03:31:55;141.10;2176.00
26272;DHT22;13997;48.902;12.472;2023-02-08T03:34:57;141.10;2176.00
26272;DHT22;13997;48.902;12.472;2023-02-08T03:37:30;141.10;2176.00
26272;DHT22;13997;48.902;12.472;2023-02-08T03:40:17;141.20;2176.00
26272;DHT22;13997;48.902;12.472;2023-02-08T03:42:45;141.20;2176.00
26272;DHT22;13997;48.902;12.472;2023-02-08T03:45:17;141.20;2176.00
26272;DHT22;13997;48.902;12.472;2023-02-08T03:47:48;141.20;2176.00
26272;DHT22;13997;48.902;12.472;2023-02-08T03:50:16;141.30;2176.00
26272;DHT22;13997;48.902;12.472;2023-02-08T03:52:46;141.30;2176.00
26272;DHT22;13997;48.902;12.472;2023-02-08T03:55:26;141.30;2176.00
26272;DHT22;13997;48.902;12.472;2023-02-08T03:57:56;141.30;2176.00
26272;DHT22;13997;48.902;12.472;2023-02-08T04:00:23;141.30;2176.00
26272;DHT22;13997;48.902;12.472;2023-02-08T04:02:56;141.30;2176.00
26272;DHT22;13997;48.902;12.472;2023-02-08T04:05:23;141.30;2176.00
26272;DHT22;13997;48.902;12.472;2023-02-08T04:07:50;141.30;2176.00
26272;DHT22;13997;48.902;12.472;2023-02-08T04:10:16;141.40;2176.00
26272;DHT22;13997;48.902;12.472;2023-02-08T04:12:42;141.40;2176.00
26272;DHT22;13997;48.902;12.472;2023-02-08T04:15:09;141.40;2176.00
26272;DHT22;13997;48.902;12.472;2023-02-08T04:17:34;141.40;2176.00
26272;DHT22;13997;48.902;12.472;2023-02-08T04:20:00;141.40;2176.00
26272;DHT22;13997;48.902;12.472;2023-02-08T04:22:26;141.40;2176.00
26272;DHT22;13997;48.902;12.472;2023-02-08T04:24:51;141.50;2176.00
26272;DHT22;13997;48.902;12.472;2023-02-08T04:27:17;141.50;2176.00
26272;DHT22;13997;48.902;12.472;2023-02-08T04:29:42;141.50;2176.00
26272;DHT22;13997;48.902;12.472;2023-02-08T04:32:08;141.60;2176.00
26272;DHT22;13997;48.902;12.472;2023-02-08T04:34:36;141.60;2176.00
26272;DHT22;13997;48.902;12.472;2023-02-08T04:37:03;141.60;2176.00
26272;DHT22;13997;48.902;12.472;2023-02-08T04:39:29;141.60;2176.00
26272;DHT22;13997;48.902;12.472;2023-02-08T04:41:54;141.60;2176.00
26272;DHT22;13997;48.902;12.472;2023-02-08T04:44:20;141.50;2176.00
26272;DHT22;13997;48.902;12.472;2023-02-08T04:46:45;141.50;2176.00
26272;DHT22;13997;48.902;12.472;2023-02-08T04:49:11;141.50;2176.00
26272;DHT22;13997;48.902;12.472;2023-02-08T04:51:37;141.50;2176.00
26272;DHT22;13997;48.902;12.472;2023-02-08T04:54:02;141.50;2176.00
26272;DHT22;13997;48.902;12.472;2023-02-08T04:56:28;141.50;2176.00
26272;DHT22;13997;48.902;12.472;2023-02-08T04:58:53;141.50;2176.00
26272;DHT22;13997;48.902;12.472;2023-02-08T05:01:19;141.50;2176.00
26272;DHT22;13997;48.902;12.472;2023-02-08T05:03:45;141.60;2176.00
26272;DHT22;13997;48.902;12.472;2023-02-08T05:06:10;141.60;2176.00
26272;DHT22;13997;48.902;12.472;2023-02-08T05:08:36;141.60;2176.00
26272;DHT22;13997;48.902;12.472;2023-02-08T05:11:01;141.50;2176.00
26272;DHT22;13997;48.902;12.472;2023-02-08T05:13:27;141.50;2176.00
26272;DHT22;13997;48.902;12.472;2023-02-08T05:15:52;141.50;2176.00
26272;DHT22;13997;48.902;12.472;2023-02-08T05:18:18;141.60;2176.00
26272;DHT22;13997;48.902;12.472;2023-02-08T05:20:44;141.60;2176.00
26272;DHT22;13997;48.902;12.472;2023-02-08T05:23:10;141.70;2176.00
26272;DHT22;13997;48.902;12.472;2023-02-08T05:25:37;141.70;2176.00
26272;DHT22;13997;48.902;12.472;2023-02-08T05:28:03;141.70;2176.00
26272;DHT22;13997;48.902;12.472;2023-02-08T05:30:29;141.70;2176.00
26272;DHT22;13997;48.902;12.472;2023-02-08T05:32:55;141.70;2176.00
26272;DHT22;13997;48.902;12.472;2023-02-08T05:35:21;141.70;2176.00
26272;DHT22;13997;48.902;12.472;2023-02-08T05:37:46;166.40;2176.00
26272;DHT22;13997;48.902;12.472;2023-02-08T05:40:12;141.70;2176.00
26272;DHT22;13997;48.902;12.472;2023-02-08T05:42:38;141.70;2176.00
26272;DHT22;13997;48.902;12.472;2023-02-08T05:45:04;141.70;2176.00
26272;DHT22;13997;48.902;12.472;2023-02-08T05:47:30;141.70;2176.00
26272;DHT22;13997;48.902;12.472;2023-02-08T05:49:55;141.70;2176.00
26272;DHT22;13997;48.902;12.472;2023-02-08T05:52:21;141.70;2176.00
26272;DHT22;13997;48.902;12.472;2023-02-08T05:54:46;141.70;2176.00
26272;DHT22;13997;48.902;12.472;2023-02-08T05:57:12;141.70;2176.00
26272;DHT22;13997;48.902;12.472;2023-02-08T05:59:37;166.40;2176.00
26272;DHT22;13997;48.902;12.472;2023-02-08T06:02:03;166.40;2176.00
26272;DHT22;13997;48.902;12.472;2023-02-08T06:04:28;166.40;2176.00
26272;DHT22;13997;48.902;12.472;2023-02-08T06:06:54;166.40;2176.00
26272;DHT22;13997;48.902;12.472;2023-02-08T06:09:19;166.40;2176.00
26272;DHT22;13997;48.902;12.472;2023-02-08T06:11:45;166.40;2176.00
26272;DHT22;13997;48.902;12.472;2023-02-08T06:14:11;166.40;2176.00
26272;DHT22;13997;48.902;12.472;2023-02-08T06:16:36;166.40;2176.00
26272;DHT22;13997;48.902;12.472;2023-02-08T06:19:02;166.40;2176.00
26272;DHT22;13997;48.902;12.472;2023-02-08T06:21:27;141.70;2176.00
26272;DHT22;13997;48.902;12.472;2023-02-08T06:23:53;141.70;2176.00
26272;DHT22;13997;48.902;12.472;2023-02-08T06:26:18;141.70;2176.00
26272;DHT22;13997;48.902;12.472;2023-02-08T06:28:44;166.40;2176.00
26272;DHT22;13997;48.902;12.472;2023-02-08T06:31:10;166.40;2176.00
26272;DHT22;13997;48.902;12.472;2023-02-08T06:33:35;166.40;2176.00
26272;DHT22;13997;48.902;12.472;2023-02-08T06:36:01;166.50;2176.00
26272;DHT22;13997;48.902;12.472;2023-02-08T06:38:26;166.50;2176.00
26272;DHT22;13997;48.902;12.472;2023-02-08T06:40:52;166.50;2176.00
26272;DHT22;13997;48.902;12.472;2023-02-08T06:43:17;166.40;2176.00
26272;DHT22;13997;48.902;12.472;2023-02-08T06:45:44;166.40;2176.00
26272;DHT22;13997;48.902;12.472;2023-02-08T06:48:10;166.40;2176.00
26272;DHT22;13997;48.902;12.472;2023-02-08T06:50:36;166.40;2176.00
26272;DHT22;13997;48.902;12.472;2023-02-08T06:53:02;141.70;2176.00
26272;DHT22;13997;48.902;12.472;2023-02-08T06:55:28;141.70;2176.00
26272;DHT22;13997;48.902;12.472;2023-02-08T06:57:54;141.70;2176.00
26272;DHT22;13997;48.902;12.472;2023-02-08T07:00:20;141.70;2176.00
26272;DHT22;13997;48.902;12.472;2023-02-08T07:02:45;141.70;2176.00
26272;DHT22;13997;48.902;12.472;2023-02-08T07:05:15;141.60;2176.00
26272;DHT22;13997;48.902;12.472;2023-02-08T07:07:41;141.60;2176.00
26272;DHT22;13997;48.902;12.472;2023-02-08T07:10:06;141.50;2176.00
26272;DHT22;13997;48.902;12.472;2023-02-08T07:12:35;141.50;2176.00
26272;DHT22;13997;48.902;12.472;2023-02-08T07:15:01;141.50;2176.00
26272;DHT22;13997;48.902;12.472;2023-02-08T07:17:27;141.40;2176.00
26272;DHT22;13997;48.902;12.472;2023-02-08T07:19:52;141.30;2176.00
26272;DHT22;13997;48.902;12.472;2023-02-08T07:22:18;141.30;2176.00
26272;DHT22;13997;48.902;12.472;2023-02-08T07:24:43;141.20;2176.00
26272;DHT22;13997;48.902;12.472;2023-02-08T07:27:11;141.10;2176.00
26272;DHT22;13997;48.902;12.472;2023-02-08T07:29:38;141.00;2176.00
26272;DHT22;13997;48.902;12.472;2023-02-08T07:32:04;140.90;2176.00
26272;DHT22;13997;48.902;12.472;2023-02-08T07:34:33;140.80;2176.00
26272;DHT22;13997;48.902;12.472;2023-02-08T07:36:59;116.00;2176.00
26272;DHT22;13997;48.902;12.472;2023-02-08T07:39:25;115.90;2176.00
26272;DHT22;13997;48.902;12.472;2023-02-08T07:41:51;115.80;2176.00
26272;DHT22;13997;48.902;12.472;2023-02-08T07:44:16;115.60;2176.00
26272;DHT22;13997;48.902;12.472;2023-02-08T07:46:42;115.50;2176.00
26272;DHT22;13997;48.902;12.472;2023-02-08T07:49:08;115.30;2176.00
26272;DHT22;13997;48.902;12.472;2023-02-08T07:51:33;115.30;2176.00
26272;DHT22;13997;48.902;12.472;2023-02-08T07:53:59;90.50;2176.00
26272;DHT22;13997;48.902;12.472;2023-02-08T07:56:24;90.40;2176.00
26272;DHT22;13997;48.902;12.472;2023-02-08T07:58:50;90.30;2176.00
26272;DHT22;13997;48.902;12.472;2023-02-08T08:01:15;90.20;2176.00
26272;DHT22;13997;48.902;12.472;2023-02-08T08:03:41;90.10;2176.00
26272;DHT22;13997;48.902;12.472;2023-02-08T08:06:06;90.00;2176.00
26272;DHT22;13997;48.902;12.472;2023-02-08T08:08:32;89.90;2176.00
26272;DHT22;13997;48.902;12.472;2023-02-08T08:10:58;89.80;2176.00
26272;DHT22;13997;48.902;12.472;2023-02-08T08:13:23;89.60;2201.60
26272;DHT22;13997;48.902;12.472;2023-02-08T08:15:49;64.90;2201.60
26272;DHT22;13997;48.902;12.472;2023-02-08T08:18:14;64.80;2201.60
26272;DHT22;13997;48.902;12.472;2023-02-08T08:20:40;64.80;2201.60
26272;DHT22;13997;48.902;12.472;2023-02-08T08:23:06;64.80;2201.60
26272;DHT22;13997;48.902;12.472;2023-02-08T08:25:32;64.80;2201.60
26272;DHT22;13997;48.902;12.472;2023-02-08T08:27:58;64.70;2201.60
26272;DHT22;13997;48.902;12.472;2023-02-08T08:30:23;64.60;2201.60
26272;DHT22;13997;48.902;12.472;2023-02-08T08:32:49;64.50;2201.60
26272;DHT22;13997;48.902;12.472;2023-02-08T08:35:14;64.40;2201.60
26272;DHT22;13997;48.902;12.472;2023-02-08T08:37:40;64.40;2201.60
26272;DHT22;13997;48.902;12.472;2023-02-08T08:40:07;64.30;2201.60
26272;DHT22;13997;48.902;12.472;2023-02-08T08:42:33;64.40;2201.60
26272;DHT22;13997;48.902;12.472;2023-02-08T08:45:01;64.30;2201.60
26272;DHT22;13997;48.902;12.472;2023-02-08T08:47:27;64.20;2201.60
26272;DHT22;13997;48.902;12.472;2023-02-08T08:49:52;64.20;2201.60
26272;DHT22;13997;48.902;12.472;2023-02-08T08:52:18;64.10;2201.60
26272;DHT22;13997;48.902;12.472;2023-02-08T08:54:43;64.00;2201.60
26272;DHT22;13997;48.902;12.472;2023-02-08T08:57:09;39.30;2201.60
26272;DHT22;13997;48.902;12.472;2023-02-08T08:59:35;39.30;2201.60
26272;DHT22;13997;48.902;12.472;2023-02-08T09:02:00;39.30;2201.60
26272;DHT22;13997;48.902;12.472;2023-02-08T09:04:26;39.20;2201.60
26272;DHT22;13997;48.902;12.472;2023-02-08T09:06:53;39.10;2201.60
26272;DHT22;13997;48.902;12.472;2023-02-08T09:09:19;39.10;2201.60
26272;DHT22;13997;48.902;12.472;2023-02-08T09:11:46;39.10;2201.60
26272;DHT22;13997;48.902;12.472;2023-02-08T09:14:11;39.10;2201.60
26272;DHT22;13997;48.902;12.472;2023-02-08T09:16:39;39.00;2201.60
26272;DHT22;13997;48.902;12.472;2023-02-08T09:19:07;39.10;2201.60
26272;DHT22;13997;48.902;12.472;2023-02-08T09:21:33;39.10;2201.60
26272;DHT22;13997;48.902;12.472;2023-02-08T09:24:02;39.00;2201.60
26272;DHT22;13997;48.902;12.472;2023-02-08T09:26:28;39.00;2201.60
26272;DHT22;13997;48.902;12.472;2023-02-08T09:28:54;39.00;2201.60
26272;DHT22;13997;48.902;12.472;2023-02-08T09:31:25;38.90;2201.60
26272;DHT22;13997;48.902;12.472;2023-02-08T09:33:53;38.80;2201.60
26272;DHT22;13997;48.902;12.472;2023-02-08T09:36:20;38.70;2201.60
26272;DHT22;13997;48.902;12.472;2023-02-08T09:38:48;38.60;2201.60
26272;DHT22;13997;48.902;12.472;2023-02-08T09:41:39;38.60;2201.60
26272;DHT22;13997;48.902;12.472;2023-02-08T09:44:20;38.70;2201.60
26272;DHT22;13997;48.902;12.472;2023-02-08T09:46:59;38.70;2201.60
26272;DHT22;13997;48.902;12.472;2023-02-08T09:49:35;38.60;2201.60
26272;DHT22;13997;48.902;12.472;2023-02-08T09:52:10;38.60;2201.60
26272;DHT22;13997;48.902;12.472;2023-02-08T09:54:53;38.50;2201.60
26272;DHT22;13997;48.902;12.472;2023-02-08T09:57:23;38.50;2201.60
26272;DHT22;13997;48.902;12.472;2023-02-08T10:00:00;38.40;2201.60
26272;DHT22;13997;48.902;12.472;2023-02-08T10:02:30;38.40;2201.60
26272;DHT22;13997;48.902;12.472;2023-02-08T10:07:27;13.70;2201.60
26272;DHT22;13997;48.902;12.472;2023-02-08T10:09:56;13.70;2201.60
26272;DHT22;13997;48.902;12.472;2023-02-08T10:12:36;13.70;2201.60
26272;DHT22;13997;48.902;12.472;2023-02-08T10:23:59;13.40;2201.60
26272;DHT22;13997;48.902;12.472;2023-02-08T10:32:05;13.30;2201.60
26272;DHT22;13997;48.902;12.472;2023-02-08T10:34:46;13.30;2201.60
26272;DHT22;13997;48.902;12.472;2023-02-08T10:37:22;13.30;2201.60
26272;DHT22;13997;48.902;12.472;2023-02-08T10:39:49;13.10;2201.60
26272;DHT22;13997;48.902;12.472;2023-02-08T10:42:18;13.10;2201.60
26272;DHT22;13997;48.902;12.472;2023-02-08T10:45:01;13.10;2201.60
26272;DHT22;13997;48.902;12.472;2023-02-08T10:52:48;13.00;2201.60
26272;DHT22;13997;48.902;12.472;2023-02-08T10:55:16;13.00;2201.60
26272;DHT22;13997;48.902;12.472;2023-02-08T10:57:43;13.00;2201.60
26272;DHT22;13997;48.902;12.472;2023-02-08T11:00:23;12.90;2201.60
26272;DHT22;13997;48.902;12.472;2023-02-08T11:02:50;12.90;2201.60
26272;DHT22;13997;48.902;12.472;2023-02-08T11:08:08;0.00;2201.60
26272;DHT22;13997;48.902;12.472;2023-02-08T11:10:34;0.10;2201.60
26272;DHT22;13997;48.902;12.472;2023-02-08T11:18:25;0.10;2201.60
26272;DHT22;13997;48.902;12.472;2023-02-08T11:20:55;0.20;2201.60
26272;DHT22;13997;48.902;12.472;2023-02-08T11:23:27;0.30;2201.60
26272;DHT22;13997;48.902;12.472;2023-02-08T11:25:54;0.40;2201.60
26272;DHT22;13997;48.902;12.472;2023-02-08T11:28:36;0.60;2201.60
26272;DHT22;13997;48.902;12.472;2023-02-08T11:31:18;0.70;2201.60
26272;DHT22;13997;48.902;12.472;2023-02-08T11:36:23;0.60;2201.60
26272;DHT22;13997;48.902;12.472;2023-02-08T11:38:49;0.50;2201.60
26272;DHT22;13997;48.902;12.472;2023-02-08T11:41:17;0.60;2201.60
26272;DHT22;13997;48.902;12.472;2023-02-08T11:44:04;0.70;2201.60
26272;DHT22;13997;48.902;12.472;2023-02-08T11:46:32;0.70;2201.60
26272;DHT22;13997;48.902;12.472;2023-02-08T11:48:59;0.70;2201.60
26272;DHT22;13997;48.902;12.472;2023-02-08T11:51:35;0.90;2201.60
26272;DHT22;13997;48.902;12.472;2023-02-08T11:54:02;0.80;2201.60
26272;DHT22;13997;48.902;12.472;2023-02-08T11:56:32;0.80;2201.60
26272;DHT22;13997;48.902;12.472;2023-02-08T11:59:19;0.80;2201.60
26272;DHT22;13997;48.902;12.472;2023-02-08T12:01:47;0.80;2201.60
26272;DHT22;13997;48.902;12.472;2023-02-08T12:04:14;0.90;2201.60
26272;DHT22;13997;48.902;12.472;2023-02-08T12:07:14;0.90;2201.60
26272;DHT22;13997;48.902;12.472;2023-02-08T12:10:06;25.70;2201.60
26272;DHT22;13997;48.902;12.472;2023-02-08T12:12:55;25.70;2201.60
26272;DHT22;13997;48.902;12.472;2023-02-08T12:21:08;25.90;2201.60
26272;DHT22;13997;48.902;12.472;2023-02-08T12:23:46;25.90;2201.60
26272;DHT22;13997;48.902;12.472;2023-02-08T12:32:04;25.90;2201.60
26272;DHT22;13997;48.902;12.472;2023-02-08T12:34:56;25.90;2201.60
26272;DHT22;13997;48.902;12.472;2023-02-08T12:37:51;26.00;2201.60
26272;DHT22;13997;48.902;12.472;2023-02-08T12:43:53;26.00;2201.60
26272;DHT22;13997;48.902;12.472;2023-02-08T12:46:43;26.10;2201.60
26272;DHT22;13997;48.902;12.472;2023-02-08T12:54:34;26.20;2201.60
26272;DHT22;13997;48.902;12.472;2023-02-08T12:57:02;26.10;2201.60
26272;DHT22;13997;48.902;12.472;2023-02-08T12:59:36;26.20;2201.60
26272;DHT22;13997;48.902;12.472;2023-02-08T13:02:20;26.20;2201.60
26272;DHT22;13997;48.902;12.472;2023-02-08T13:04:50;26.30;2201.60
26272;DHT22;13997;48.902;12.472;2023-02-08T13:07:26;26.30;2201.60
26272;DHT22;13997;48.902;12.472;2023-02-08T13:09:59;26.40;2201.60
26272;DHT22;13997;48.902;12.472;2023-02-08T13:12:33;26.40;2201.60
26272;DHT22;13997;48.902;12.472;2023-02-08T13:17:56;26.50;2201.60
26272;DHT22;13997;48.902;12.472;2023-02-08T13:20:44;26.50;2201.60
26272;DHT22;13997;48.902;12.472;2023-02-08T13:26:24;26.40;2201.60
26272;DHT22;13997;48.902;12.472;2023-02-08T13:28:54;26.40;2201.60
26272;DHT22;13997;48.902;12.472;2023-02-08T13:31:23;26.50;2201.60
26272;DHT22;13997;48.902;12.472;2023-02-08T13:36:40;51.30;2227.20
26272;DHT22;13997;48.902;12.472;2023-02-08T13:39:30;51.30;2227.20
26272;DHT22;13997;48.902;12.472;2023-02-08T13:41:54;51.30;2227.20
26272;DHT22;13997;48.902;12.472;2023-02-08T13:44:28;51.30;2227.20
26272;DHT22;13997;48.902;12.472;2023-02-08T13:46:55;51.30;2227.20
26272;DHT22;13997;48.902;12.472;2023-02-08T13:49:41;51.20;2227.20
26272;DHT22;13997;48.902;12.472;2023-02-08T13:52:11;51.30;2227.20
26272;DHT22;13997;48.902;12.472;2023-02-08T13:54:37;51.40;2227.20
26272;DHT22;13997;48.902;12.472;2023-02-08T13:57:47;51.40;2227.20
26272;DHT22;13997;48.902;12.472;2023-02-08T14:00:47;51.40;2227.20
26272;DHT22;13997;48.902;12.472;2023-02-08T14:07:58;51.50;2227.20
26272;DHT22;13997;48.902;12.472;2023-02-08T14:10:34;51.50;2227.20
26272;DHT22;13997;48.902;12.472;2023-02-08T14:13:28;51.50;2227.20
26272;DHT22;13997;48.902;12.472;2023-02-08T14:18:50;51.40;2227.20
26272;DHT22;13997;48.902;12.472;2023-02-08T14:21:30;51.40;2227.20
26272;DHT22;13997;48.902;12.472;2023-02-08T14:24:18;51.30;2227.20
26272;DHT22;13997;48.902;12.472;2023-02-08T14:26:45;51.40;2227.20
26272;DHT22;13997;48.902;12.472;2023-02-08T14:29:20;51.40;2227.20
26272;DHT22;13997;48.902;12.472;2023-02-08T14:31:48;51.40;2227.20
26272;DHT22;13997;48.902;12.472;2023-02-08T14:34:30;51.40;2227.20
26272;DHT22;13997;48.902;12.472;2023-02-08T14:37:00;51.40;2227.20
26272;DHT22;13997;48.902;12.472;2023-02-08T14:39:29;51.40;2227.20
26272;DHT22;13997;48.902;12.472;2023-02-08T14:42:05;51.40;2227.20
26272;DHT22;13997;48.902;12.472;2023-02-08T14:49:51;51.50;2227.20
26272;DHT22;13997;48.902;12.472;2023-02-08T14:52:22;51.50;2227.20
26272;DHT22;13997;48.902;12.472;2023-02-08T14:57:31;51.50;2227.20
26272;DHT22;13997;48.902;12.472;2023-02-08T15:00:03;51.50;2227.20
26272;DHT22;13997;48.902;12.472;2023-02-08T15:02:29;51.40;2227.20
26272;DHT22;13997;48.902;12.472;2023-02-08T15:04:56;51.40;2227.20
26272;DHT22;13997;48.902;12.472;2023-02-08T15:07:28;51.40;2227.20
26272;DHT22;13997;48.902;12.472;2023-02-08T15:09:55;51.40;2227.20
26272;DHT22;13997;48.902;12.472;2023-02-08T15:12:30;51.30;2227.20
26272;DHT22;13997;48.902;12.472;2023-02-08T15:14:58;51.40;2227.20
26272;DHT22;13997;48.902;12.472;2023-02-08T15:17:36;51.40;2227.20
26272;DHT22;13997;48.902;12.472;2023-02-08T15:20:07;51.40;2227.20
26272;DHT22;13997;48.902;12.472;2023-02-08T15:22:37;51.40;2227.20
26272;DHT22;13997;48.902;12.472;2023-02-08T15:25:24;51.40;2227.20
26272;DHT22;13997;48.902;12.472;2023-02-08T15:27:56;51.40;2227.20
26272;DHT22;13997;48.902;12.472;2023-02-08T15:30:28;51.30;2227.20
26272;DHT22;13997;48.902;12.472;2023-02-08T15:32:54;51.30;2227.20
26272;DHT22;13997;48.902;12.472;2023-02-08T15:35:20;51.20;2227.20
26272;DHT22;13997;48.902;12.472;2023-02-08T15:37:48;51.20;2227.20
26272;DHT22;13997;48.902;12.472;2023-02-08T15:40:40;26.50;2201.60
26272;DHT22;13997;48.902;12.472;2023-02-08T15:45:31;26.50;2201.60
26272;DHT22;13997;48.902;12.472;2023-02-08T15:47:58;26.40;2201.60
26272;DHT22;13997;48.902;12.472;2023-02-08T15:50:26;26.30;2201.60
26272;DHT22;13997;48.902;12.472;2023-02-08T15:52:57;26.30;2201.60
26272;DHT22;13997;48.902;12.472;2023-02-08T15:55:24;26.30;2201.60
26272;DHT22;13997;48.902;12.472;2023-02-08T15:57:56;26.20;2201.60
26272;DHT22;13997;48.902;12.472;2023-02-08T16:00:32;26.20;2201.60
26272;DHT22;13997;48.902;12.472;2023-02-08T16:03:05;26.20;2201.60
26272;DHT22;13997;48.902;12.472;2023-02-08T16:05:33;26.20;2201.60
26272;DHT22;13997;48.902;12.472;2023-02-08T16:08:00;26.10;2201.60
26272;DHT22;13997;48.902;12.472;2023-02-08T16:12:57;26.10;2201.60
26272;DHT22;13997;48.902;12.472;2023-02-08T16:15:36;26.00;2201.60
26272;DHT22;13997;48.902;12.472;2023-02-08T16:18:02;26.00;2201.60
26272;DHT22;13997;48.902;12.472;2023-02-08T16:20:33;26.00;2201.60
26272;DHT22;13997;48.902;12.472;2023-02-08T16:23:01;25.90;2201.60
26272;DHT22;13997;48.902;12.472;2023-02-08T16:25:41;25.90;2201.60
26272;DHT22;13997;48.902;12.472;2023-02-08T16:28:30;25.90;2201.60
26272;DHT22;13997;48.902;12.472;2023-02-08T16:31:01;25.80;2201.60
26272;DHT22;13997;48.902;12.472;2023-02-08T16:33:29;25.80;2201.60
26272;DHT22;13997;48.902;12.472;2023-02-08T16:35:55;25.80;2201.60
26272;DHT22;13997;48.902;12.472;2023-02-08T16:38:31;25.80;2201.60
26272;DHT22;13997;48.902;12.472;2023-02-08T16:40:59;25.80;2201.60
26272;DHT22;13997;48.902;12.472;2023-02-08T16:43:39;25.70;2201.60
26272;DHT22;13997;48.902;12.472;2023-02-08T16:48:56;25.70;2201.60
26272;DHT22;13997;48.902;12.472;2023-02-08T16:51:30;25.80;2201.60
26272;DHT22;13997;48.902;12.472;2023-02-08T16:54:01;25.70;2201.60
26272;DHT22;13997;48.902;12.472;2023-02-08T16:56:27;25.70;2201.60
26272;DHT22;13997;48.902;12.472;2023-02-08T16:58:53;25.70;2201.60